Time;durP1;ratioP1;P1;durP2;ratioP2;P2;SDS_P1;SDS_P2;PMS_P1;PMS_P2;Temp;Humidity;BMP_temperature;BMP_pressure;BME280_temperature;BME280_humidity;BME280_pressure;Samples;Min_cycle;Max_cycle;Signal;HPM_P1;HPM_P2
2022/09/24 00:00:58;;;;;;;21.43;13.70;;;14.00;1.00;;;;;;5008406;28;20465;-63
2022/09/24 00:03:25;;;;;;;18.53;14.07;;;14.10;1.00;;;;;;5007129;28;20164;-62
2022/09/24 00:05:52;;;;;;;17.93;13.50;;;14.20;99.90;;;;;;5002808;28;20415;-62
2022/09/24 00:08:19;;;;;;;22.27;14.20;;;14.30;99.90;;;;;;5007343;28;20756;-64
2022/09/24 00:10:46;;;;;;;20.43;13.90;;;14.20;99.90;;;;;;5012171;28;20870;-62
2022/09/24 00:13:15;;;;;;;15.77;13.10;;;14.20;99.90;;;;;;5013072;28;20402;-63
2022/09/24 00:15:46;;;;;;;26.47;14.10;;;14.30;1.00;;;;;;5013641;28;20403;-60
2022/09/24 00:18:13;;;;;;;19.60;12.00;;;14.40;1.00;;;;;;5013364;28;20399;-62
2022/09/24 00:20:39;;;;;;;18.57;13.20;;;14.30;1.00;;;;;;5011978;28;20967;-61
2022/09/24 00:23:07;;;;;;;17.43;13.60;;;14.20;1.00;;;;;;5013370;28;20414;-62
2022/09/24 00:28:17;;;;;;;14.17;12.73;;;14.30;1.00;;;;;;5013090;28;20398;-62
2022/09/24 00:30:44;;;;;;;15.83;13.00;;;14.40;1.00;;;;;;5012374;28;20511;-62
2022/09/24 00:33:10;;;;;;;15.23;13.60;;;14.30;1.00;;;;;;5013099;28;20814;-63
2022/09/24 00:35:38;;;;;;;15.50;12.73;;;14.20;1.00;;;;;;5013079;28;20407;-61
2022/09/24 00:38:05;;;;;;;13.73;12.33;;;14.20;1.00;;;;;;5012633;28;20411;-63
2022/09/24 00:40:37;;;;;;;13.33;11.93;;;14.20;1.00;;;;;;5012076;28;20513;-63
2022/09/24 00:43:35;;;;;;;13.60;12.30;;;14.20;1.00;;;;;;5012202;28;20498;-62
2022/09/24 00:46:21;;;;;;;14.43;12.23;;;14.30;1.00;;;;;;5013290;28;20501;-63
2022/09/24 00:48:50;;;;;;;14.10;11.03;;;14.30;1.00;;;;;;5011774;28;20398;-63
2022/09/24 00:51:19;;;;;;;14.00;12.30;;;14.20;1.00;;;;;;5012082;28;20896;-63
2022/09/24 00:53:47;;;;;;;14.40;11.60;;;14.20;1.00;;;;;;5013141;28;20407;-63
2022/09/24 00:56:15;;;;;;;19.77;11.97;;;14.30;1.00;;;;;;5012476;28;20431;-62
2022/09/24 00:58:46;;;;;;;14.20;10.80;;;14.10;1.00;;;;;;5010103;28;20403;-63
2022/09/24 01:01:13;;;;;;;15.47;12.37;;;14.20;1.00;;;;;;5010504;28;20946;-63
2022/09/24 01:03:41;;;;;;;13.03;11.83;;;14.20;1.00;;;;;;5013126;28;20407;-61
2022/09/24 01:06:09;;;;;;;14.60;11.87;;;14.20;1.00;;;;;;5014180;28;20415;-62
2022/09/24 01:08:35;;;;;;;13.17;11.57;;;14.10;1.00;;;;;;5012939;28;20417;-61
2022/09/24 01:11:13;;;;;;;18.30;12.43;;;14.10;99.90;;;;;;5011794;28;20427;-61
2022/09/24 01:13:51;;;;;;;18.47;12.90;;;14.10;99.90;;;;;;5012153;28;20772;-61
2022/09/24 01:16:22;;;;;;;21.97;13.63;;;14.10;99.90;;;;;;5012497;28;20419;-61
2022/09/24 01:19:25;;;;;;;15.80;13.93;;;14.10;99.90;;;;;;5012521;28;20407;-60
2022/09/24 01:21:58;;;;;;;18.13;11.87;;;14.00;99.90;;;;;;5010563;28;20462;-63
2022/09/24 01:24:55;;;;;;;12.23;11.03;;;13.90;99.90;;;;;;5012678;28;20482;-62
2022/09/24 01:27:42;;;;;;;15.27;11.63;;;13.90;1.00;;;;;;5007792;28;21039;-63
2022/09/24 01:30:11;;;;;;;11.73;10.63;;;14.00;99.90;;;;;;5010176;28;20430;-62
2022/09/24 01:32:49;;;;;;;13.03;11.73;;;14.00;99.90;;;;;;5007385;28;20813;-63
2022/09/24 01:35:20;;;;;;;16.63;11.83;;;14.00;62.70;;;;;;5013270;28;20888;-63
2022/09/24 01:37:52;;;;;;;12.80;11.60;;;14.00;1.00;;;;;;5004693;28;20457;-62
2022/09/24 01:40:21;;;;;;;12.77;11.57;;;14.10;1.00;;;;;;5002669;28;20550;-63
2022/09/24 01:42:49;;;;;;;14.20;12.70;;;14.10;1.00;;;;;;5010686;28;20502;-63
2022/09/24 01:45:16;;;;;;;16.40;14.70;;;14.00;1.00;;;;;;5012339;28;20407;-64
2022/09/24 01:47:44;;;;;;;19.13;12.33;;;13.90;1.00;;;;;;5011644;28;20484;-63
2022/09/24 01:50:14;;;;;;;16.67;12.67;;;14.00;1.00;;;;;;5011473;28;20439;-63
2022/09/24 01:52:45;;;;;;;12.83;11.17;;;13.90;1.00;;;;;;5011233;28;20555;-63
2022/09/24 01:55:15;;;;;;;12.43;11.30;;;13.90;38.20;;;;;;5011563;28;20403;-63
2022/09/24 01:57:58;;;;;;;15.90;12.13;;;13.80;99.90;;;;;;5011278;28;20765;-63
2022/09/24 02:00:24;;;;;;;12.73;11.63;;;13.80;1.00;;;;;;5010957;28;20402;-63
2022/09/24 02:03:16;;;;;;;11.53;10.53;;;13.70;1.00;;;;;;5010993;28;20963;-63
2022/09/24 02:06:02;;;;;;;12.30;11.13;;;13.60;99.90;;;;;;5013099;28;20503;-61
2022/09/24 02:08:36;;;;;;;15.23;11.83;;;13.40;1.00;;;;;;5010819;28;20787;-63
2022/09/24 02:11:06;;;;;;;13.33;12.10;;;13.40;99.90;;;;;;5010437;28;20458;-61
2022/09/24 02:13:59;;;;;;;13.60;10.97;;;13.50;11.70;;;;;;5010833;28;20454;-63
2022/09/24 02:16:45;;;;;;;13.37;11.97;;;13.60;1.00;;;;;;5011328;28;20415;-61
2022/09/24 02:19:14;;;;;;;12.40;11.10;;;13.70;99.90;;;;;;5011220;28;20414;-62
2022/09/24 02:21:43;;;;;;;16.23;12.60;;;13.70;1.00;;;;;;5005086;28;20466;-62
2022/09/24 02:24:19;;;;;;;15.13;11.00;;;13.80;1.00;;;;;;5008853;28;20489;-63
2022/09/24 02:26:46;;;;;;;13.53;12.03;;;13.80;99.90;;;;;;5010541;28;20407;-63
2022/09/24 02:29:12;;;;;;;26.83;13.60;;;13.90;99.90;;;;;;5011312;28;20407;-63
2022/09/24 02:31:42;;;;;;;17.17;12.60;;;13.90;99.90;;;;;;5009721;28;20514;-64
2022/09/24 02:34:19;;;;;;;15.17;10.73;;;13.90;99.90;;;;;;5010848;28;20534;-63
2022/09/24 02:36:48;;;;;;;15.13;12.87;;;13.90;99.90;;;;;;5010668;28;20411;-63
2022/09/24 02:39:13;;;;;;;14.10;12.30;;;14.00;1.00;;;;;;5010760;28;20399;-60
2022/09/24 02:41:41;;;;;;;14.00;12.50;;;13.90;1.00;;;;;;5009360;28;20818;-60
2022/09/24 02:44:07;;;;;;;15.07;12.70;;;13.90;1.00;;;;;;4998867;28;20173;-62
2022/09/24 02:46:33;;;;;;;13.63;12.33;;;13.90;1.00;;;;;;4999183;28;20426;-63
2022/09/24 02:48:58;;;;;;;18.67;12.57;;;13.90;1.00;;;;;;5005215;28;20196;-63
2022/09/24 02:51:24;;;;;;;12.80;11.50;;;13.90;1.00;;;;;;5002097;28;20250;-63
2022/09/24 02:53:50;;;;;;;18.47;11.97;;;13.80;1.00;;;;;;5012611;28;20176;-64
2022/09/24 02:56:16;;;;;;;13.90;11.60;;;13.80;1.00;;;;;;5002398;28;20510;-64
2022/09/24 02:58:42;;;;;;;15.47;12.60;;;13.80;1.00;;;;;;4999321;28;20183;-64
2022/09/24 03:01:08;;;;;;;15.07;12.40;;;13.70;13.60;;;;;;5004202;28;20259;-64
2022/09/24 03:03:33;;;;;;;14.23;10.90;;;13.50;1.00;;;;;;5007559;28;20196;-65
2022/09/24 03:05:59;;;;;;;15.77;12.40;;;13.50;1.00;;;;;;5011609;28;20207;-64
2022/09/24 03:08:25;;;;;;;13.53;12.20;;;13.50;1.00;;;;;;5013290;28;20724;-64
2022/09/24 03:10:52;;;;;;;12.97;11.67;;;13.50;1.00;;;;;;5012863;28;20192;-64
2022/09/24 03:13:18;;;;;;;15.60;12.07;;;13.50;1.00;;;;;;5013394;28;20462;-65
2022/09/24 03:15:46;;;;;;;13.20;12.00;;;13.60;99.90;;;;;;5013000;28;20411;-64
2022/09/24 03:18:13;;;;;;;15.70;11.50;;;13.60;99.90;;;;;;5013034;28;20169;-64
2022/09/24 03:20:39;;;;;;;13.13;11.70;;;13.70;99.90;;;;;;5011568;28;20539;-64
2022/09/24 03:23:05;;;;;;;15.03;11.03;;;13.60;1.00;;;;;;5012622;28;20464;-64
2022/09/24 03:25:30;;;;;;;15.90;11.50;;;13.70;1.00;;;;;;5013396;28;20183;-64
2022/09/24 03:27:56;;;;;;;21.47;11.37;;;13.60;34.40;;;;;;5012485;28;20247;-64
2022/09/24 03:33:06;;;;;;;14.67;12.43;;;13.60;1.00;;;;;;5012748;28;20179;-64
2022/09/24 03:35:32;;;;;;;13.40;11.77;;;13.60;1.00;;;;;;5013044;28;20779;-64
2022/09/24 03:37:58;;;;;;;12.83;11.53;;;13.50;93.10;;;;;;5012863;28;20168;-64
2022/09/24 03:40:24;;;;;;;20.10;12.10;;;13.60;92.40;;;;;;5011856;28;20700;-65
2022/09/24 03:42:49;;;;;;;12.63;11.50;;;13.60;1.00;;;;;;5011851;28;20184;-64
2022/09/24 03:45:15;;;;;;;13.23;11.90;;;13.40;1.00;;;;;;5013030;28;20437;-64
2022/09/24 03:47:42;;;;;;;14.43;11.43;;;13.50;1.00;;;;;;5012931;28;20180;-64
2022/09/24 03:50:11;;;;;;;17.20;12.40;;;13.50;1.00;;;;;;5012792;28;20200;-64
2022/09/24 03:52:38;;;;;;;20.33;12.30;;;13.50;1.00;;;;;;5012080;28;20434;-64
2022/09/24 03:55:04;;;;;;;16.80;12.23;;;13.50;1.00;;;;;;5012515;28;20407;-64
2022/09/24 03:57:29;;;;;;;18.00;10.40;;;13.40;1.00;;;;;;5011548;28;20419;-64
2022/09/24 03:59:55;;;;;;;15.97;11.20;;;13.40;1.00;;;;;;5012699;28;20411;-64
2022/09/24 04:02:21;;;;;;;13.20;11.83;;;13.50;1.00;;;;;;5011534;28;20215;-65
2022/09/24 04:04:46;;;;;;;15.90;10.50;;;13.50;1.00;;;;;;5013022;28;20192;-64
2022/09/24 04:07:12;;;;;;;13.83;11.80;;;13.50;1.00;;;;;;5011728;28;20648;-64
2022/09/24 04:09:38;;;;;;;13.07;11.57;;;13.60;1.00;;;;;;5012279;28;20176;-65
2022/09/24 04:12:05;;;;;;;14.17;11.93;;;13.60;1.00;;;;;;5010687;28;20275;-65
2022/09/24 04:14:31;;;;;;;18.63;12.70;;;13.50;1.00;;;;;;5012650;28;20184;-64
2022/09/24 04:16:57;;;;;;;12.90;10.57;;;13.50;33.20;;;;;;5011364;28;20534;-65
2022/09/24 04:19:25;;;;;;;13.13;11.60;;;13.50;1.00;;;;;;5010859;28;20258;-64
2022/09/24 04:21:51;;;;;;;14.03;11.57;;;13.50;1.00;;;;;;5008216;28;20467;-62
2022/09/24 04:24:17;;;;;;;13.13;11.23;;;13.40;99.90;;;;;;5009484;28;20907;-64
2022/09/24 04:26:43;;;;;;;11.90;10.30;;;13.40;1.00;;;;;;5008192;28;20426;-65
2022/09/24 04:29:09;;;;;;;14.03;11.83;;;13.50;99.90;;;;;;5011565;28;20403;-65
2022/09/24 04:31:35;;;;;;;15.67;10.80;;;13.60;99.90;;;;;;5010838;28;20811;-64
2022/09/24 04:34:00;;;;;;;16.93;12.17;;;13.40;99.90;;;;;;5010907;28;20174;-65
2022/09/24 04:36:26;;;;;;;13.57;12.10;;;13.40;1.00;;;;;;5016428;28;20245;-64
2022/09/24 04:38:52;;;;;;;13.63;11.93;;;13.50;99.90;;;;;;5014016;28;20589;-65
2022/09/24 04:41:18;;;;;;;13.07;11.70;;;13.50;99.90;;;;;;5009349;28;20212;-65
2022/09/24 04:43:46;;;;;;;17.83;11.80;;;13.40;99.90;;;;;;5009695;28;20187;-63
2022/09/24 04:46:12;;;;;;;15.00;10.87;;;13.40;99.90;;;;;;5010314;28;20164;-64
2022/09/24 04:48:39;;;;;;;23.57;12.90;;;13.40;1.00;;;;;;5010259;28;20453;-65
2022/09/24 04:51:06;;;;;;;15.40;12.43;;;13.40;1.00;;;;;;5013428;28;20458;-65
2022/09/24 04:53:34;;;;;;;46.67;13.47;;;13.50;1.00;;;;;;5010106;28;20411;-64
2022/09/24 04:55:59;;;;;;;21.47;12.60;;;13.50;99.90;;;;;;5013647;28;20411;-65
2022/09/24 04:58:25;;;;;;;29.40;12.83;;;13.50;1.00;;;;;;5013319;28;20418;-65
2022/09/24 05:00:52;;;;;;;23.60;12.90;;;13.50;1.00;;;;;;5026363;22;20215;-65
2022/09/24 05:03:20;;;;;;;19.90;11.80;;;13.60;1.00;;;;;;5012211;28;20426;-65
2022/09/24 05:05:46;;;;;;;21.00;11.73;;;13.60;99.90;;;;;;5012604;28;20456;-66
2022/09/24 05:08:12;;;;;;;25.43;12.30;;;13.50;99.90;;;;;;5010830;28;20893;-65
2022/09/24 05:10:38;;;;;;;33.70;12.60;;;13.60;1.00;;;;;;5011348;28;20462;-66
2022/09/24 05:13:04;;;;;;;24.07;13.03;;;13.50;99.90;;;;;;5011926;28;20407;-65
2022/09/24 05:15:30;;;;;;;27.13;12.63;;;13.50;99.90;;;;;;5011884;28;20408;-67
2022/09/24 05:17:56;;;;;;;27.57;12.33;;;13.50;1.00;;;;;;5012498;28;20408;-65
2022/09/24 05:20:23;;;;;;;34.43;14.23;;;13.50;99.90;;;;;;5011888;28;20414;-70
2022/09/24 05:22:49;;;;;;;43.70;14.97;;;13.50;1.00;;;;;;5011929;28;20435;-68
2022/09/24 05:25:17;;;;;;;51.40;15.23;;;13.50;1.00;;;;;;5001277;28;20410;-65
2022/09/24 05:27:44;;;;;;;50.57;14.80;;;13.50;1.00;;;;;;5004928;28;20510;-65
2022/09/24 05:30:11;;;;;;;41.87;16.83;;;13.50;1.00;;;;;;5013471;28;20419;-65
2022/09/24 05:32:36;;;;;;;43.90;13.97;;;13.50;1.00;;;;;;5009332;28;21057;-67
2022/09/24 05:35:02;;;;;;;32.47;12.90;;;13.50;1.00;;;;;;5009525;28;20550;-66
2022/09/24 05:37:28;;;;;;;30.03;13.00;;;13.50;1.00;;;;;;5008139;28;20235;-66
2022/09/24 05:39:53;;;;;;;44.87;15.67;;;13.50;1.00;;;;;;5014831;28;20180;-66
2022/09/24 05:42:19;;;;;;;40.60;15.00;;;13.60;1.00;;;;;;5007287;28;20623;-66
2022/09/24 05:44:45;;;;;;;50.13;15.47;;;13.60;1.00;;;;;;5008193;28;20180;-67
2022/09/24 05:47:11;;;;;;;43.87;14.30;;;13.60;1.00;;;;;;5006960;28;20180;-67
2022/09/24 05:49:37;;;;;;;68.57;15.87;;;13.60;1.00;;;;;;5013929;28;20184;-66
2022/09/24 05:52:03;;;;;;;71.90;15.27;;;13.60;1.00;;;;;;5007108;28;20267;-67
2022/09/24 05:54:28;;;;;;;52.37;14.80;;;13.70;1.00;;;;;;5019029;28;20533;-66
2022/09/24 05:56:54;;;;;;;39.53;15.63;;;13.70;1.00;;;;;;5011241;28;20183;-69
2022/09/24 05:59:20;;;;;;;19.73;11.53;;;13.70;1.00;;;;;;5008632;28;20235;-64
2022/09/24 06:01:47;;;;;;;31.47;13.50;;;13.50;1.00;;;;;;5006554;28;20208;-65
2022/09/24 06:04:13;;;;;;;32.53;12.70;;;13.50;1.00;;;;;;5006459;28;20180;-65
2022/09/24 06:06:39;;;;;;;33.17;13.97;;;13.60;1.00;;;;;;5008989;28;20488;-64
2022/09/24 06:09:07;;;;;;;40.67;13.50;;;13.50;1.00;;;;;;5009032;28;20514;-66
2022/09/24 06:11:33;;;;;;;27.47;13.20;;;13.50;1.00;;;;;;5017090;28;20211;-69
2022/09/24 06:14:03;;;;;;;24.77;14.30;;;13.50;1.00;;;;;;5019383;28;20459;-65
2022/09/24 06:16:30;;;;;;;34.57;12.00;;;13.50;1.00;;;;;;5008453;28;21175;-64
2022/09/24 06:18:56;;;;;;;33.90;13.00;;;13.50;1.00;;;;;;5011893;28;20430;-65
2022/09/24 06:21:22;;;;;;;46.10;14.10;;;13.50;1.00;;;;;;5006765;28;20877;-66
2022/09/24 06:23:47;;;;;;;35.33;12.90;;;13.60;1.00;;;;;;5007067;28;20256;-65
2022/09/24 06:26:13;;;;;;;34.33;12.37;;;13.60;1.00;;;;;;5009700;28;20235;-68
2022/09/24 06:28:40;;;;;;;32.43;11.63;;;13.60;1.00;;;;;;5009896;28;20649;-66
2022/09/24 06:31:06;;;;;;;15.77;12.80;;;13.50;1.00;;;;;;5005551;28;20259;-67
2022/09/24 06:33:32;;;;;;;26.13;12.63;;;13.50;1.00;;;;;;4999248;28;20437;-67
2022/09/24 06:36:03;;;;;;;26.97;13.47;;;13.60;1.00;;;;;;5004021;28;20508;-67
2022/09/24 06:38:29;;;;;;;55.30;16.63;;;13.50;1.00;;;;;;5004664;28;20356;-66
2022/09/24 06:41:02;;;;;;;45.33;13.00;;;13.50;1.00;;;;;;5007891;28;20986;-65
2022/09/24 06:43:28;;;;;;;27.27;12.87;;;13.60;1.00;;;;;;5006964;28;20436;-67
2022/09/24 06:45:55;;;;;;;27.83;14.17;;;13.50;1.00;;;;;;5007935;28;20431;-67
2022/09/24 06:48:22;;;;;;;29.50;12.53;;;13.60;1.00;;;;;;5014640;28;20434;-68
2022/09/24 06:50:47;;;;;;;30.17;12.27;;;13.60;1.00;;;;;;5010522;28;20939;-68
2022/09/24 06:53:13;;;;;;;24.00;13.20;;;13.60;1.00;;;;;;5023703;28;20415;-68
2022/09/24 06:55:39;;;;;;;31.30;12.77;;;13.70;1.00;;;;;;5011160;28;20651;-68
2022/09/24 06:58:07;;;;;;;33.33;14.20;;;13.60;1.00;;;;;;5010755;28;20203;-69
2022/09/24 07:00:34;;;;;;;57.03;15.43;;;13.70;1.00;;;;;;5007447;28;20199;-67
2022/09/24 07:03:00;;;;;;;20.80;12.20;;;13.80;1.00;;;;;;5007718;28;20463;-68
2022/09/24 07:05:25;;;;;;;29.03;14.30;;;13.80;1.00;;;;;;5011334;28;20421;-68
2022/09/24 07:07:51;;;;;;;29.50;12.33;;;13.80;1.00;;;;;;5011094;28;20615;-67
2022/09/24 07:10:17;;;;;;;73.00;17.40;;;13.80;1.00;;;;;;5010882;28;20164;-68
2022/09/24 07:12:43;;;;;;;38.97;14.00;;;13.80;1.00;;;;;;5009353;28;20211;-68
2022/09/24 07:15:09;;;;;;;17.23;12.33;;;13.80;32.20;;;;;;5011040;28;20535;-68
2022/09/24 07:17:35;;;;;;;55.97;15.27;;;13.90;1.00;;;;;;5010349;28;20291;-66
2022/09/24 07:20:01;;;;;;;159.33;27.17;;;13.80;53.20;;;;;;5010789;28;20578;-67
2022/09/24 07:22:27;;;;;;;19.97;13.50;;;13.90;99.90;;;;;;5009607;28;20215;-67
2022/09/24 07:24:53;;;;;;;45.87;15.40;;;13.90;99.90;;;;;;5010746;28;20723;-66
2022/09/24 07:27:20;;;;;;;17.40;12.63;;;14.00;99.90;;;;;;5010483;28;20247;-67
2022/09/24 07:29:47;;;;;;;26.10;13.77;;;13.90;99.90;;;;;;5010787;28;20180;-68
2022/09/24 07:32:15;;;;;;;27.33;16.10;;;13.90;99.90;;;;;;5009265;28;20435;-67
2022/09/24 07:34:40;;;;;;;37.87;16.20;;;13.90;99.90;;;;;;5008367;28;20407;-68
2022/09/24 07:37:06;;;;;;;24.90;10.63;;;13.90;99.90;;;;;;5002057;28;20458;-68
2022/09/24 07:39:32;;;;;;;33.77;12.83;;;14.10;1.00;;;;;;5002207;28;20231;-68
2022/09/24 07:42:00;;;;;;;36.83;13.63;;;14.80;1.00;;;;;;4999151;28;20773;-69
2022/09/24 07:44:28;;;;;;;18.27;10.60;;;14.80;99.90;;;;;;4997853;28;20674;-68
2022/09/24 07:46:54;;;;;;;39.63;14.63;;;15.30;99.90;;;;;;5006813;28;20426;-68
2022/09/24 07:49:20;;;;;;;32.43;13.33;;;15.60;1.00;;;;;;4996896;28;20430;-67
2022/09/24 07:51:46;;;;;;;32.87;14.57;;;15.80;1.00;;;;;;5001254;28;20470;-67
2022/09/24 07:54:12;;;;;;;31.30;15.60;;;15.40;1.00;;;;;;5006576;28;20438;-68
2022/09/24 07:56:38;;;;;;;31.03;15.03;;;14.90;1.00;;;;;;4998417;28;20412;-68
2022/09/24 07:59:05;;;;;;;35.53;14.43;;;14.50;1.00;;;;;;4998293;28;20188;-68
2022/09/24 08:01:31;;;;;;;28.93;15.10;;;14.30;99.90;;;;;;4997033;28;20467;-68
2022/09/24 08:03:58;;;;;;;16.60;14.80;;;14.20;99.90;;;;;;5005666;28;20541;-68
2022/09/24 08:06:24;;;;;;;17.67;13.53;;;14.10;99.90;;;;;;4997244;28;20442;-69
2022/09/24 08:08:51;;;;;;;17.70;14.10;;;14.10;99.90;;;;;;5001083;28;20419;-68
2022/09/24 08:11:18;;;;;;;20.17;14.40;;;14.10;99.90;;;;;;4995316;28;20459;-68
2022/09/24 08:13:44;;;;;;;27.53;15.73;;;14.10;99.90;;;;;;4999876;28;20441;-68
2022/09/24 08:16:10;;;;;;;19.70;15.67;;;14.10;99.90;;;;;;4998608;28;20880;-68
2022/09/24 08:18:36;;;;;;;15.70;14.20;;;14.10;1.00;;;;;;4999681;28;20704;-67
2022/09/24 08:21:10;;;;;;;29.90;16.30;;;14.10;1.00;;;;;;4998720;28;20458;-68
2022/09/24 08:23:40;;;;;;;17.30;14.03;;;14.10;1.00;;;;;;5005086;28;20493;-68
2022/09/24 08:26:07;;;;;;;22.07;14.80;;;14.10;1.00;;;;;;5000777;28;20424;-69
2022/09/24 08:28:33;;;;;;;17.60;15.07;;;14.10;1.00;;;;;;5004503;28;20427;-68
2022/09/24 08:31:01;;;;;;;18.13;14.17;;;14.10;1.00;;;;;;5009688;28;20454;-67
2022/09/24 08:33:28;;;;;;;24.53;15.20;;;14.10;1.00;;;;;;5012178;28;20514;-69
2022/09/24 08:35:54;;;;;;;23.87;15.47;;;14.10;1.00;;;;;;5011105;28;20447;-67
2022/09/24 08:38:19;;;;;;;24.43;16.53;;;14.10;1.00;;;;;;5013977;28;20996;-68
2022/09/24 08:40:56;;;;;;;20.23;16.20;;;14.10;1.00;;;;;;5015536;28;20203;-67
2022/09/24 08:43:49;;;;;;;24.07;15.77;;;14.20;1.00;;;;;;5007720;28;20180;-69
2022/09/24 08:49:29;;;;;;;24.20;16.03;;;14.20;1.00;;;;;;5002432;28;20435;-69
2022/09/24 08:52:19;;;;;;;21.40;16.37;;;14.30;1.00;;;;;;5004655;28;20496;-70
2022/09/24 08:54:48;;;;;;;24.57;16.27;;;14.40;1.00;;;;;;5011588;28;20934;-69
2022/09/24 08:57:19;;;;;;;24.47;16.10;;;14.50;1.00;;;;;;5003180;28;20427;-69
2022/09/24 08:59:50;;;;;;;24.27;16.73;;;14.50;1.00;;;;;;5005734;28;20478;-68
2022/09/24 09:02:22;;;;;;;27.53;17.43;;;14.50;1.00;;;;;;5005510;28;20498;-66
2022/09/24 09:05:11;;;;;;;27.80;18.10;;;14.50;1.00;;;;;;5030228;28;20930;-70
2022/09/24 09:08:00;;;;;;;16.80;14.97;;;14.50;1.00;;;;;;5001252;28;20428;-70
2022/09/24 09:10:34;;;;;;;25.97;16.50;;;14.50;1.00;;;;;;5004552;28;20519;-69
2022/09/24 09:13:18;;;;;;;24.87;16.37;;;14.50;1.00;;;;;;5007003;28;20786;-69
2022/09/24 09:15:58;;;;;;;42.27;17.90;;;14.60;1.00;;;;;;5004755;28;20446;-69
2022/09/24 09:18:45;;;;;;;30.10;18.80;;;14.60;1.00;;;;;;5001867;28;20424;-67
2022/09/24 09:21:33;;;;;;;20.07;17.70;;;14.60;1.00;;;;;;5004744;28;20564;-68
2022/09/24 09:24:01;;;;;;;31.30;17.47;;;14.60;1.00;;;;;;5005110;28;20546;-69
2022/09/24 09:26:27;;;;;;;81.73;23.80;;;14.80;1.00;;;;;;5007493;28;20435;-65
2022/09/24 09:28:57;;;;;;;52.63;20.83;;;14.80;1.00;;;;;;5009776;28;20430;-71
2022/09/24 09:31:43;;;;;;;37.73;18.17;;;14.80;1.00;;;;;;5005465;28;20203;-67
2022/09/24 09:34:33;;;;;;;24.67;17.90;;;14.90;1.00;;;;;;5005694;28;20423;-69
2022/09/24 09:37:02;;;;;;;23.97;17.97;;;15.00;1.00;;;;;;5004279;28;20442;-70
2022/09/24 09:40:20;;;;;;;30.43;18.00;;;15.00;1.00;;;;;;5038245;28;20518;-68
2022/09/24 09:42:46;;;;;;;23.13;18.17;;;15.00;1.00;;;;;;4994574;28;20555;-66
2022/09/24 09:45:19;;;;;;;37.03;17.87;;;14.90;1.00;;;;;;5011205;28;20492;-68
2022/09/24 09:47:49;;;;;;;32.60;19.40;;;14.90;1.00;;;;;;5037287;28;20279;-68
2022/09/24 09:50:30;;;;;;;23.80;19.30;;;15.00;1.00;;;;;;5011012;28;20467;-68
2022/09/24 09:52:56;;;;;;;26.70;20.00;;;15.00;1.00;;;;;;5003572;28;20989;-68
2022/09/24 09:55:25;;;;;;;32.23;19.67;;;15.00;1.00;;;;;;5002665;28;20435;-69
2022/09/24 09:57:52;;;;;;;22.10;19.80;;;15.00;1.00;;;;;;5005654;28;20176;-68
2022/09/24 10:00:33;;;;;;;28.10;20.87;;;15.00;1.00;;;;;;5000173;28;20507;-68
2022/09/24 10:02:59;;;;;;;55.70;22.40;;;14.90;1.00;;;;;;5009472;28;20457;-67
2022/09/24 10:05:27;;;;;;;34.33;21.27;;;14.90;1.00;;;;;;5001213;28;20944;-67
2022/09/24 10:07:56;;;;;;;36.70;19.90;;;15.00;1.00;;;;;;5002681;28;20188;-68
2022/09/24 10:10:24;;;;;;;26.80;18.87;;;15.00;1.00;;;;;;5000720;28;20428;-68
2022/09/24 10:13:07;;;;;;;23.53;19.53;;;15.00;1.00;;;;;;5004112;28;20994;-68
2022/09/24 10:15:34;;;;;;;30.27;20.30;;;15.00;1.00;;;;;;5000776;28;20451;-68
2022/09/24 10:18:00;;;;;;;29.57;18.93;;;15.00;1.00;;;;;;5004283;28;20431;-69
2022/09/24 10:20:28;;;;;;;23.07;18.43;;;15.00;1.00;;;;;;5002718;28;20795;-68
2022/09/24 10:23:02;;;;;;;19.30;17.30;;;15.00;1.00;;;;;;5002430;28;20458;-69
2022/09/24 10:25:30;;;;;;;25.00;17.17;;;15.00;1.00;;;;;;5001200;28;20432;-70
2022/09/24 10:30:57;;;;;;;19.27;17.40;;;15.10;1.00;;;;;;5010796;28;20494;-71
2022/09/24 10:33:23;;;;;;;19.40;15.87;;;15.10;1.00;;;;;;5000229;28;20444;-68
2022/09/24 10:35:50;;;;;;;17.90;16.10;;;15.00;1.00;;;;;;5011134;28;20422;-68
2022/09/24 10:38:24;;;;;;;18.57;16.60;;;15.10;1.00;;;;;;5003894;28;20471;-68
2022/09/24 10:40:49;;;;;;;18.87;16.97;;;15.00;1.00;;;;;;5003452;28;20813;-69
2022/09/24 10:43:20;;;;;;;30.30;18.70;;;15.00;1.00;;;;;;5008238;28;20442;-67
2022/09/24 10:46:04;;;;;;;26.33;18.17;;;15.00;1.00;;;;;;5012774;28;20530;-68
2022/09/24 10:48:49;;;;;;;30.40;17.10;;;15.10;1.00;;;;;;5005015;28;20426;-69
2022/09/24 10:51:20;;;;;;;35.50;17.80;;;15.20;1.00;;;;;;5009799;28;20886;-67
2022/09/24 10:54:03;;;;;;;52.70;19.93;;;15.10;1.00;;;;;;5016178;28;20450;-67
2022/09/24 10:56:43;;;;;;;26.87;17.10;;;15.10;1.00;;;;;;5005153;28;20440;-68
2022/09/24 10:59:19;;;;;;;232.73;38.57;;;15.10;1.00;;;;;;5018143;28;20450;-69
2022/09/24 11:02:02;;;;;;;54.27;21.60;;;15.20;1.00;;;;;;5022401;22;20501;-68
2022/09/24 11:04:46;;;;;;;35.17;18.87;;;15.20;1.00;;;;;;5010003;28;20873;-67
2022/09/24 11:07:47;;;;;;;34.20;18.00;;;15.20;1.00;;;;;;5005028;28;20509;-67
2022/09/24 11:10:31;;;;;;;77.80;21.53;;;15.20;1.00;;;;;;5005197;28;20570;-67
2022/09/24 11:13:06;;;;;;;33.83;17.80;;;15.20;1.00;;;;;;4997248;28;20586;-67
2022/09/24 11:16:08;;;;;;;34.93;16.40;;;15.20;1.00;;;;;;5005662;28;20476;-68
2022/09/24 11:19:07;;;;;;;27.60;15.60;;;15.30;1.00;;;;;;4997264;28;20467;-67
2022/09/24 11:21:56;;;;;;;16.30;14.57;;;15.30;1.00;;;;;;4994633;28;20478;-66
2022/09/24 11:24:49;;;;;;;17.67;15.73;;;15.30;1.00;;;;;;4998256;28;20419;-67
2022/09/24 11:27:43;;;;;;;16.37;14.67;;;15.30;1.00;;;;;;5005049;28;20429;-67
2022/09/24 11:30:21;;;;;;;57.90;17.23;;;15.30;1.00;;;;;;4988286;28;21020;-65
2022/09/24 11:33:17;;;;;;;34.97;15.23;;;15.20;1.00;;;;;;5000192;28;20439;-66
2022/09/24 11:36:04;;;;;;;25.00;16.17;;;15.20;1.00;;;;;;4998184;28;20416;-68
2022/09/24 11:39:07;;;;;;;35.87;16.70;;;15.20;1.00;;;;;;4997193;28;20427;-67
2022/09/24 11:41:46;;;;;;;18.90;15.60;;;15.20;1.00;;;;;;4977680;28;20470;-67
2022/09/24 11:44:41;;;;;;;27.43;15.50;;;15.20;1.00;;;;;;4997823;28;20514;-67
2022/09/24 11:47:13;;;;;;;22.10;15.00;;;15.20;1.00;;;;;;5004710;28;20546;-66
2022/09/24 11:49:48;;;;;;;25.53;14.33;;;15.20;1.00;;;;;;5005772;28;20411;-66
2022/09/24 11:52:34;;;;;;;24.50;13.17;;;15.20;1.00;;;;;;5004639;28;20513;-67
2022/09/24 11:55:08;;;;;;;13.40;12.00;;;15.20;1.00;;;;;;5003720;28;21009;-67
2022/09/24 11:57:40;;;;;;;12.80;10.03;;;15.20;1.00;;;;;;5002053;28;20426;-68
2022/09/24 12:00:12;;;;;;;11.03;9.93;;;15.20;1.00;;;;;;5001144;28;20911;-67
2022/09/24 12:02:53;;;;;;;42.43;12.90;;;15.30;1.00;;;;;;4999132;28;20521;-67
2022/09/24 12:05:32;;;;;;;47.27;11.53;;;15.30;1.00;;;;;;5004630;28;21017;-66
2022/09/24 12:08:18;;;;;;;35.43;11.90;;;15.30;1.00;;;;;;4993399;28;20898;-68
2022/09/24 12:11:05;;;;;;;49.90;14.60;;;15.30;1.00;;;;;;4994979;28;20496;-66
2022/09/24 12:13:41;;;;;;;73.50;14.70;;;15.30;1.00;;;;;;5000147;28;20430;-66
2022/09/24 12:16:20;;;;;;;31.40;10.10;;;15.30;1.00;;;;;;5004271;28;20427;-68
2022/09/24 12:18:58;;;;;;;28.67;8.10;;;15.30;1.00;;;;;;5003449;28;20948;-69
2022/09/24 12:21:33;;;;;;;17.53;7.17;;;15.30;1.00;;;;;;4992878;28;20467;-67
2022/09/24 12:24:05;;;;;;;37.47;9.80;;;15.30;1.00;;;;;;4997378;28;20442;-67
2022/09/24 12:26:36;;;;;;;22.83;11.50;;;15.30;1.00;;;;;;5003220;28;20510;-67
2022/09/24 12:35:31;;;;;;;12.30;7.70;;;15.30;1.00;;;;;;4997457;28;20634;-66
2022/09/24 12:38:11;;;;;;;7.90;6.07;;;15.40;1.00;;;;;;5006635;28;20403;-66
2022/09/24 12:41:09;;;;;;;14.90;7.20;;;15.40;1.00;;;;;;4993430;28;20833;-67
2022/09/24 12:43:47;;;;;;;10.50;7.10;;;15.40;1.00;;;;;;4982366;28;20630;-66
2022/09/24 12:46:26;;;;;;;7.33;6.60;;;15.50;1.00;;;;;;4988235;28;20408;-65
2022/09/24 12:48:53;;;;;;;11.03;7.57;;;15.50;1.00;;;;;;5005938;28;20771;-66
2022/09/24 12:51:21;;;;;;;8.73;6.53;;;15.50;1.00;;;;;;4995240;28;20477;-66
2022/09/24 12:54:17;;;;;;;12.67;6.70;;;15.50;1.00;;;;;;5001284;28;20411;-68
2022/09/24 12:56:43;;;;;;;36.23;11.17;;;15.50;1.00;;;;;;4995613;28;20833;-67
2022/09/24 12:59:27;;;;;;;14.83;7.40;;;15.50;1.00;;;;;;4997170;28;20435;-68
2022/09/24 13:01:53;;;;;;;19.03;7.03;;;15.50;1.00;;;;;;4996835;28;20201;-67
2022/09/24 13:04:19;;;;;;;11.63;5.23;;;15.40;1.00;;;;;;4994021;28;20473;-67
2022/09/24 13:06:47;;;;;;;8.27;5.43;;;15.40;1.00;;;;;;5005212;28;20466;-68
2022/09/24 13:09:31;;;;;;;5.70;4.63;;;15.30;1.00;;;;;;4997038;28;20188;-67
2022/09/24 13:12:16;;;;;;;13.67;6.10;;;15.30;1.00;;;;;;4999380;28;20489;-66
2022/09/24 13:15:01;;;;;;;8.20;5.10;;;15.30;1.00;;;;;;4998534;28;20427;-69